Huvudsida
METAR-TAF:

METAR-TAF

Flygplatser :

Gran Canarias flygplats

Gran Canaria, Spanien

latitud: 27-56N, longitud: 015-23W, höjd: 23 m

Aktuellt väderrapport

Denna rapport gjordes för 16 minuter sedan, klockan 12:30 UTC
Vind 23 kt från nord/nordost
Temperatur 22°C
Fuktighet 53%
Tryck 1020 hPa
Sikt 10 km eller mer
Få moln på en höjd av 3500 ft

METAR: GCLP 251230Z 03023KT 9999 FEW035 22/12 Q1020 NOSIG

Tid: 13:46 (12:46 UTC)

Väderprognos

Denna rapport gjordes för 4 timmar och 46 minuter sedan, klockan 08:00 UTC
Prognos gäller från 25 kl. 09 UTC till 26 kl. 09 UTC
Vind 20 kt från nord/nordost
Sikt 10 km eller mer
Spridda moln på en höjd av 3000 ft
Temporärt
från 25 kl. 11 UTC till 25 kl. 18 UTC
Vind 20 kt från nord/nordost i byarna ända upp till 30 kt
Sannolikhet 40% :
Temporärt
från 25 kl. 23 UTC till 26 kl. 09 UTC
regn

TAF: GCLP 250800Z 2509/2609 02020KT 9999 SCT030 TX22/2514Z TN17/2605Z TEMPO 2511/2518 02020G30KT PROB40 TEMPO 2523/2609 RA

Aktuella väderrapporter och prognoser från 4000 flygplatser (METAR- och TAF-rapporter).

De tillgängliga stationerna syns som gula och röda prickar på kartan.

För musen över prickarna för att se namnen på stationerna.

Klicka sedan för att få väderrapporter och prognoser.

För att ändra kartan: Klicka på de gröna knapparna med ett svart kors på för att zooma in; den gröna knappen med ett streck på för att zooma ut; eller på de gröna pilarna för angränsande kartor.


METAR-TAF: